createdAt,value
2022-07-31T00:00:26.593Z,99.90
2022-07-31T00:02:56.070Z,99.90
2022-07-31T00:05:24.895Z,99.90
2022-07-31T00:07:54.821Z,99.90
2022-07-31T00:10:22.961Z,99.90
2022-07-31T00:12:51.102Z,99.90
2022-07-31T00:15:19.468Z,99.90
2022-07-31T00:17:48.439Z,99.90
2022-07-31T00:20:19.320Z,99.90
2022-07-31T00:22:48.827Z,99.90
2022-07-31T00:25:17.822Z,99.90
2022-07-31T00:27:46.249Z,99.90
2022-07-31T00:30:16.839Z,99.90
2022-07-31T00:32:45.289Z,99.90
2022-07-31T00:35:14.059Z,99.90
2022-07-31T00:37:45.362Z,99.90
2022-07-31T00:40:15.815Z,99.90
2022-07-31T00:42:44.291Z,99.90
2022-07-31T00:45:13.479Z,99.90
2022-07-31T00:47:42.323Z,99.90
2022-07-31T00:50:11.301Z,99.90
2022-07-31T00:52:39.424Z,99.90
2022-07-31T00:55:10.262Z,99.90
2022-07-31T00:57:38.398Z,99.90
2022-07-31T01:00:07.679Z,99.90
2022-07-31T01:02:36.194Z,99.90
2022-07-31T01:05:04.453Z,99.90
2022-07-31T01:07:32.666Z,99.90
2022-07-31T01:10:05.135Z,99.90
2022-07-31T01:12:40.713Z,99.90
2022-07-31T01:15:11.059Z,99.90
2022-07-31T01:17:41.068Z,99.90
2022-07-31T01:20:12.099Z,99.90
2022-07-31T01:22:57.298Z,99.90
2022-07-31T01:25:37.914Z,99.90
2022-07-31T01:28:23.232Z,99.90
2022-07-31T01:31:17.269Z,99.90
2022-07-31T01:33:49.948Z,99.90
2022-07-31T01:36:21.416Z,99.90
2022-07-31T01:38:53.811Z,99.90
2022-07-31T01:41:27.847Z,99.90
2022-07-31T01:43:58.135Z,99.90
2022-07-31T01:46:29.849Z,99.90
2022-07-31T01:48:59.056Z,99.90
2022-07-31T01:51:28.852Z,99.90
2022-07-31T01:53:57.321Z,99.90
2022-07-31T01:56:26.071Z,99.90
2022-07-31T01:58:55.804Z,99.90
2022-07-31T02:01:27.304Z,99.90
2022-07-31T02:04:00.535Z,99.90
2022-07-31T02:06:29.865Z,99.90
2022-07-31T02:08:59.168Z,99.90
2022-07-31T02:11:27.464Z,99.90
2022-07-31T02:13:58.413Z,99.90
2022-07-31T02:16:28.226Z,99.90
2022-07-31T02:18:59.482Z,99.90
2022-07-31T02:21:28.854Z,99.90
2022-07-31T02:23:57.220Z,99.90
2022-07-31T02:26:27.165Z,99.90
2022-07-31T02:28:55.651Z,99.90
2022-07-31T02:31:24.515Z,99.90
2022-07-31T02:33:53.550Z,99.90
2022-07-31T02:36:24.375Z,99.90
2022-07-31T02:38:54.961Z,99.90
2022-07-31T02:41:23.488Z,99.90
2022-07-31T02:43:52.577Z,99.90
2022-07-31T02:46:21.904Z,99.90
2022-07-31T02:48:51.064Z,99.90
2022-07-31T02:51:19.540Z,99.90
2022-07-31T02:53:49.964Z,99.90
2022-07-31T02:56:18.311Z,99.90
2022-07-31T02:58:47.364Z,99.90
2022-07-31T03:01:15.519Z,99.90
2022-07-31T03:03:44.050Z,99.90
2022-07-31T03:06:12.306Z,99.90
2022-07-31T03:08:40.365Z,99.90
2022-07-31T03:11:09.876Z,99.90
2022-07-31T03:13:38.977Z,99.90
2022-07-31T03:16:11.381Z,99.90
2022-07-31T03:18:41.237Z,99.90
2022-07-31T03:21:11.825Z,99.90
2022-07-31T03:23:40.269Z,99.90
2022-07-31T03:26:11.548Z,99.90
2022-07-31T03:28:39.678Z,99.90
2022-07-31T03:31:08.872Z,99.90
2022-07-31T03:33:37.003Z,99.90
2022-07-31T03:36:05.679Z,99.90
2022-07-31T03:38:41.564Z,99.90
2022-07-31T03:41:13.354Z,99.90
2022-07-31T03:43:44.318Z,99.90
2022-07-31T03:46:18.025Z,99.90
2022-07-31T03:48:47.193Z,99.90
2022-07-31T03:51:16.814Z,99.90
2022-07-31T03:53:46.069Z,99.90
2022-07-31T03:56:17.265Z,99.90
2022-07-31T03:58:45.445Z,99.90
2022-07-31T04:01:20.774Z,99.90
2022-07-31T04:03:49.004Z,99.90
2022-07-31T04:06:17.008Z,99.90
2022-07-31T04:08:45.144Z,99.90
2022-07-31T04:11:13.569Z,99.90
2022-07-31T04:13:43.163Z,99.90
2022-07-31T04:16:11.257Z,99.90
2022-07-31T04:18:40.590Z,99.90
2022-07-31T04:21:08.644Z,99.90
2022-07-31T04:23:36.795Z,99.90
2022-07-31T04:26:05.304Z,99.90
2022-07-31T04:28:33.666Z,99.90
2022-07-31T04:31:03.338Z,99.90
2022-07-31T04:33:31.440Z,99.90
2022-07-31T04:35:59.530Z,99.90
2022-07-31T04:38:27.913Z,99.90
2022-07-31T04:40:55.963Z,99.90
2022-07-31T04:43:24.073Z,99.90
2022-07-31T04:45:52.115Z,99.90
2022-07-31T04:48:21.530Z,99.90
2022-07-31T04:50:49.706Z,99.90
2022-07-31T04:53:17.748Z,99.90
2022-07-31T04:56:06.485Z,99.90
2022-07-31T04:58:35.763Z,99.90
2022-07-31T05:01:04.030Z,99.90
2022-07-31T05:03:33.464Z,99.90
2022-07-31T05:06:10.640Z,99.90
2022-07-31T05:08:40.526Z,99.90
2022-07-31T05:11:24.576Z,99.90
2022-07-31T05:13:54.199Z,99.90
2022-07-31T05:16:23.744Z,99.90
2022-07-31T05:18:53.603Z,99.90
2022-07-31T05:21:22.032Z,99.90
2022-07-31T05:23:50.864Z,99.90
2022-07-31T05:26:19.548Z,99.90
2022-07-31T05:28:49.539Z,99.90
2022-07-31T05:31:18.799Z,99.90
2022-07-31T05:33:47.917Z,99.90
2022-07-31T05:36:18.280Z,99.90
2022-07-31T05:38:46.506Z,99.90
2022-07-31T05:41:14.762Z,99.90
2022-07-31T05:43:43.110Z,99.90
2022-07-31T05:46:14.048Z,99.90
2022-07-31T05:48:42.203Z,99.90
2022-07-31T05:51:11.413Z,99.90
2022-07-31T05:53:41.407Z,99.90
2022-07-31T05:56:13.848Z,99.90
2022-07-31T05:58:41.930Z,99.90
2022-07-31T06:01:11.003Z,99.90
2022-07-31T06:03:52.286Z,99.90
2022-07-31T06:06:20.951Z,99.90
2022-07-31T06:08:50.387Z,99.90
2022-07-31T06:11:18.444Z,99.90
2022-07-31T06:13:46.488Z,99.90
2022-07-31T06:16:15.500Z,99.90
2022-07-31T06:18:44.072Z,99.90
2022-07-31T06:23:39.363Z,99.90
2022-07-31T06:26:08.781Z,99.90
2022-07-31T06:28:48.907Z,99.90
2022-07-31T06:31:19.284Z,99.90
2022-07-31T06:33:48.584Z,99.90
2022-07-31T06:36:17.361Z,99.90
2022-07-31T06:38:45.993Z,99.90
2022-07-31T06:41:35.933Z,99.90
2022-07-31T06:44:04.122Z,99.90
2022-07-31T06:46:32.234Z,99.90
2022-07-31T06:49:00.436Z,99.90
2022-07-31T06:51:31.203Z,99.90
2022-07-31T06:54:00.137Z,99.90
2022-07-31T06:56:29.773Z,99.90
2022-07-31T06:58:58.360Z,99.90
2022-07-31T07:01:26.523Z,99.90
2022-07-31T07:03:54.836Z,99.90
2022-07-31T07:06:23.511Z,99.90
2022-07-31T07:08:52.017Z,99.90
2022-07-31T07:11:20.698Z,99.90
2022-07-31T07:13:50.793Z,99.90
2022-07-31T07:16:18.941Z,99.90
2022-07-31T07:18:47.085Z,99.90
2022-07-31T07:21:15.165Z,99.90
2022-07-31T07:23:43.276Z,99.90
2022-07-31T07:26:11.542Z,99.90
2022-07-31T07:28:40.110Z,99.90
2022-07-31T07:31:09.609Z,99.90
2022-07-31T07:33:39.650Z,99.90
2022-07-31T07:36:23.075Z,99.90
2022-07-31T07:38:52.187Z,99.90
2022-07-31T07:41:21.729Z,99.90
2022-07-31T07:43:52.285Z,99.90
2022-07-31T07:46:22.986Z,99.90
2022-07-31T07:48:52.088Z,99.90
2022-07-31T07:51:21.154Z,99.90
2022-07-31T07:53:49.348Z,96.50
2022-07-31T07:56:17.695Z,98.80
2022-07-31T07:58:45.931Z,99.90
2022-07-31T08:01:14.849Z,99.90
2022-07-31T08:03:49.000Z,99.90
2022-07-31T08:06:18.669Z,99.90
2022-07-31T08:08:46.691Z,99.90
2022-07-31T08:11:17.602Z,99.90
2022-07-31T08:13:50.507Z,99.90
2022-07-31T08:16:19.659Z,99.90
2022-07-31T08:18:49.391Z,99.90
2022-07-31T08:21:17.665Z,99.70
2022-07-31T08:23:45.836Z,95.20
2022-07-31T08:26:14.218Z,95.10
2022-07-31T08:28:50.571Z,95.40
2022-07-31T08:31:19.907Z,91.90
2022-07-31T08:33:49.409Z,90.80
2022-07-31T08:36:17.752Z,90.80
2022-07-31T08:38:45.839Z,90.40
2022-07-31T08:41:15.670Z,90.60
2022-07-31T08:44:00.135Z,92.60
2022-07-31T08:46:33.702Z,89.80
2022-07-31T08:49:05.034Z,90.60
2022-07-31T08:51:50.890Z,92.80
2022-07-31T08:54:21.901Z,90.30
2022-07-31T08:56:52.563Z,91.50
2022-07-31T08:59:22.115Z,88.60
2022-07-31T09:01:51.306Z,87.10
2022-07-31T09:04:20.876Z,88.40
2022-07-31T09:06:49.041Z,88.80
2022-07-31T09:09:18.021Z,91.40
2022-07-31T09:11:51.837Z,92.80
2022-07-31T09:14:27.864Z,91.80
2022-07-31T09:16:56.843Z,89.70
2022-07-31T09:19:53.867Z,90.40
2022-07-31T09:22:24.034Z,93.10
2022-07-31T09:24:53.219Z,92.50
2022-07-31T09:27:28.713Z,93.60
2022-07-31T09:29:58.485Z,87.40
2022-07-31T09:32:26.634Z,90.90
2022-07-31T09:34:56.126Z,87.00
2022-07-31T09:37:27.670Z,91.00
2022-07-31T09:39:57.416Z,92.40
2022-07-31T09:42:35.850Z,89.60
2022-07-31T09:45:04.199Z,88.70
2022-07-31T09:47:33.223Z,89.10
2022-07-31T09:50:04.953Z,87.70
2022-07-31T09:52:33.658Z,84.80
2022-07-31T09:55:14.328Z,82.70
2022-07-31T09:57:52.929Z,87.30
2022-07-31T10:00:21.508Z,89.50
2022-07-31T10:02:50.670Z,85.30
2022-07-31T10:05:22.770Z,81.40
2022-07-31T10:07:51.558Z,84.40
2022-07-31T10:10:20.174Z,85.30
2022-07-31T10:12:51.999Z,88.70
2022-07-31T10:15:22.083Z,89.90
2022-07-31T10:17:53.758Z,88.80
2022-07-31T10:20:25.638Z,87.90
2022-07-31T10:22:57.745Z,85.90
2022-07-31T10:25:29.009Z,90.40
2022-07-31T10:27:58.322Z,87.20
2022-07-31T10:30:28.445Z,85.30
2022-07-31T10:32:58.709Z,85.40
2022-07-31T10:35:28.996Z,80.60
2022-07-31T10:38:04.907Z,83.50
2022-07-31T10:40:41.178Z,84.00
2022-07-31T10:43:20.303Z,86.00
2022-07-31T10:45:50.573Z,87.60
2022-07-31T10:48:19.469Z,87.20
2022-07-31T10:50:49.785Z,88.70
2022-07-31T10:53:19.767Z,90.40
2022-07-31T10:55:47.975Z,90.20
2022-07-31T10:58:20.123Z,91.30
2022-07-31T11:00:48.454Z,90.30
2022-07-31T11:03:18.615Z,87.00
2022-07-31T11:06:00.967Z,86.30
2022-07-31T11:08:42.548Z,86.50
2022-07-31T11:11:11.466Z,88.00
2022-07-31T11:13:50.637Z,87.20
2022-07-31T11:16:20.008Z,87.80
2022-07-31T11:18:58.776Z,88.00
2022-07-31T11:21:38.994Z,89.20
2022-07-31T11:24:14.602Z,89.80
2022-07-31T11:26:52.240Z,89.80
2022-07-31T11:30:01.809Z,88.50
2022-07-31T11:32:25.316Z,86.70
2022-07-31T11:34:56.077Z,87.90
2022-07-31T11:37:46.163Z,85.00
2022-07-31T11:40:15.536Z,84.50
2022-07-31T11:42:46.091Z,83.40
2022-07-31T11:45:15.395Z,83.90
2022-07-31T11:48:12.160Z,85.30
2022-07-31T11:50:41.126Z,84.00
2022-07-31T11:53:10.770Z,86.90
2022-07-31T11:55:46.430Z,83.30
2022-07-31T11:58:15.372Z,86.10
2022-07-31T12:00:48.851Z,85.00
2022-07-31T12:03:18.763Z,83.90
2022-07-31T12:05:48.227Z,83.70
2022-07-31T12:08:17.905Z,86.40
2022-07-31T12:10:47.144Z,87.10
2022-07-31T12:13:16.850Z,87.70
2022-07-31T12:15:59.617Z,89.00
2022-07-31T12:18:28.544Z,88.30
2022-07-31T12:21:02.751Z,89.20
2022-07-31T12:23:42.829Z,89.70
2022-07-31T12:26:13.827Z,89.40
2022-07-31T12:28:42.241Z,88.70
2022-07-31T12:31:10.320Z,88.70
2022-07-31T12:33:42.938Z,90.40
2022-07-31T12:36:15.669Z,89.70
2022-07-31T12:38:48.273Z,84.50
2022-07-31T12:41:17.596Z,84.90
2022-07-31T12:43:51.743Z,84.70
2022-07-31T12:46:21.891Z,85.30
2022-07-31T12:48:50.170Z,85.90
2022-07-31T12:51:20.473Z,85.30
2022-07-31T12:54:09.581Z,88.10
2022-07-31T12:56:38.905Z,89.20
2022-07-31T12:59:07.402Z,84.70
2022-07-31T13:01:36.760Z,84.00
2022-07-31T13:04:07.923Z,77.30
2022-07-31T13:06:38.702Z,77.40
2022-07-31T13:09:06.803Z,79.10
2022-07-31T13:11:45.602Z,75.10
2022-07-31T13:14:15.224Z,79.00
2022-07-31T13:16:43.334Z,73.10
2022-07-31T13:19:11.604Z,71.90
2022-07-31T13:21:49.336Z,74.80
2022-07-31T13:24:19.421Z,76.00
2022-07-31T13:26:49.328Z,76.60
2022-07-31T13:29:18.162Z,78.60
2022-07-31T13:31:46.656Z,76.20
2022-07-31T13:34:14.809Z,80.30
2022-07-31T13:36:42.951Z,80.80
2022-07-31T13:39:11.532Z,81.70
2022-07-31T13:41:40.191Z,81.60
2022-07-31T13:44:10.147Z,83.00
2022-07-31T13:46:38.382Z,84.40
2022-07-31T13:49:09.018Z,86.40
2022-07-31T13:51:37.691Z,86.80
2022-07-31T13:54:06.246Z,86.70
2022-07-31T13:56:42.103Z,85.70
2022-07-31T13:59:14.248Z,86.60
2022-07-31T14:02:03.661Z,85.30
2022-07-31T14:04:32.780Z,85.40
2022-07-31T14:07:07.548Z,85.20
2022-07-31T14:09:36.068Z,83.60
2022-07-31T14:12:05.767Z,83.80
2022-07-31T14:14:35.574Z,87.30
2022-07-31T14:17:03.715Z,86.20
2022-07-31T14:19:43.949Z,85.80
2022-07-31T14:22:12.883Z,86.80
2022-07-31T14:24:41.723Z,87.90
2022-07-31T14:27:18.155Z,87.80
2022-07-31T14:29:47.898Z,86.90
2022-07-31T14:32:16.062Z,87.50
2022-07-31T14:34:44.210Z,88.40
2022-07-31T14:37:12.320Z,91.10
2022-07-31T14:39:42.983Z,88.60
2022-07-31T14:42:11.680Z,88.50
2022-07-31T14:44:41.967Z,88.40
2022-07-31T14:47:12.725Z,87.10
2022-07-31T14:50:06.851Z,88.20
2022-07-31T14:52:30.198Z,88.60
2022-07-31T14:54:59.726Z,86.20
2022-07-31T14:57:28.109Z,86.80
2022-07-31T14:59:56.224Z,86.20
2022-07-31T15:02:26.341Z,88.20
2022-07-31T15:04:54.713Z,85.70
2022-07-31T15:07:44.009Z,85.90
2022-07-31T15:10:12.838Z,87.20
2022-07-31T15:12:41.154Z,88.40
2022-07-31T15:15:10.431Z,89.30
2022-07-31T15:17:39.946Z,88.80
2022-07-31T15:20:08.907Z,89.70
2022-07-31T15:22:37.042Z,90.10
2022-07-31T15:25:05.567Z,90.60
2022-07-31T15:27:33.648Z,90.90
2022-07-31T15:30:07.178Z,91.40
2022-07-31T15:32:37.139Z,90.80
2022-07-31T15:35:09.056Z,91.40
2022-07-31T15:37:38.072Z,91.30
2022-07-31T15:40:09.051Z,91.90
2022-07-31T15:42:40.449Z,92.70
2022-07-31T15:45:10.855Z,92.80
2022-07-31T15:47:39.475Z,93.40
2022-07-31T15:50:11.252Z,93.00
2022-07-31T15:52:39.523Z,93.30
2022-07-31T15:55:08.939Z,93.90
2022-07-31T15:57:37.207Z,93.30
2022-07-31T16:00:07.419Z,92.40
2022-07-31T16:02:35.494Z,92.90
2022-07-31T16:05:11.934Z,91.90
2022-07-31T16:08:32.164Z,91.80
2022-07-31T16:10:38.156Z,92.60
2022-07-31T16:13:06.335Z,93.00
2022-07-31T16:15:35.721Z,93.20
2022-07-31T16:18:04.775Z,93.70
2022-07-31T16:20:32.840Z,93.50
2022-07-31T16:23:02.602Z,92.40
2022-07-31T16:25:34.796Z,93.80
2022-07-31T16:28:03.240Z,92.70
2022-07-31T16:30:31.568Z,91.90
2022-07-31T16:32:59.820Z,92.90
2022-07-31T16:35:28.104Z,92.70
2022-07-31T16:37:56.765Z,92.40
2022-07-31T16:40:30.924Z,92.90
2022-07-31T16:43:01.901Z,91.20
2022-07-31T16:45:30.838Z,91.50
2022-07-31T16:47:59.113Z,91.50
2022-07-31T16:50:27.626Z,92.00
2022-07-31T16:52:55.887Z,92.40
2022-07-31T16:55:51.705Z,92.60
2022-07-31T16:58:16.727Z,94.60
2022-07-31T17:00:44.884Z,95.20
2022-07-31T17:03:58.701Z,95.80
2022-07-31T17:06:01.566Z,95.50
2022-07-31T17:08:29.847Z,95.50
2022-07-31T17:10:59.399Z,94.80
2022-07-31T17:13:27.473Z,93.00
2022-07-31T17:15:55.625Z,93.90
2022-07-31T17:18:25.354Z,95.30
2022-07-31T17:20:55.680Z,95.40
2022-07-31T17:23:43.452Z,95.50
2022-07-31T17:26:20.795Z,96.00
2022-07-31T17:28:50.657Z,96.30
2022-07-31T17:31:19.534Z,96.60
2022-07-31T17:33:59.384Z,97.40
2022-07-31T17:36:29.845Z,97.50
2022-07-31T17:38:58.163Z,97.20
2022-07-31T17:41:27.588Z,97.30
2022-07-31T17:43:55.748Z,97.00
2022-07-31T17:46:28.188Z,96.60
2022-07-31T17:49:03.263Z,97.40
2022-07-31T17:51:31.362Z,96.20
2022-07-31T17:53:59.910Z,97.50
2022-07-31T17:56:29.874Z,98.10
2022-07-31T17:59:03.812Z,98.30
2022-07-31T18:01:31.871Z,98.40
2022-07-31T18:04:00.083Z,98.50
2022-07-31T18:06:28.509Z,98.90
2022-07-31T18:08:56.823Z,98.90
2022-07-31T18:11:25.003Z,99.30
2022-07-31T18:13:55.528Z,99.90
2022-07-31T18:16:29.108Z,99.20
2022-07-31T18:18:57.180Z,99.70
2022-07-31T18:21:25.187Z,99.90
2022-07-31T18:23:53.276Z,99.90
2022-07-31T18:26:22.510Z,99.90
2022-07-31T18:28:50.641Z,99.90
2022-07-31T18:31:33.918Z,99.90
2022-07-31T18:34:04.516Z,99.90
2022-07-31T18:36:33.257Z,99.90
2022-07-31T18:39:02.013Z,99.90
2022-07-31T18:41:30.308Z,99.90
2022-07-31T18:43:58.570Z,99.90
2022-07-31T18:46:28.447Z,99.90
2022-07-31T18:48:57.112Z,99.90
2022-07-31T18:51:25.673Z,99.90
2022-07-31T18:53:54.793Z,99.90
2022-07-31T18:56:23.931Z,99.90
2022-07-31T18:58:52.817Z,99.90
2022-07-31T19:01:21.650Z,99.90
2022-07-31T19:03:51.629Z,99.90
2022-07-31T19:06:20.203Z,99.90
2022-07-31T19:08:49.632Z,99.90
2022-07-31T19:11:17.923Z,99.90
2022-07-31T19:13:46.160Z,99.90
2022-07-31T19:16:15.897Z,99.90
2022-07-31T19:18:50.438Z,99.90
2022-07-31T19:21:41.574Z,99.90
2022-07-31T19:24:09.278Z,99.90
2022-07-31T19:26:37.874Z,99.90
2022-07-31T19:29:06.625Z,99.90
2022-07-31T19:31:34.945Z,99.90
2022-07-31T19:34:03.180Z,99.90
2022-07-31T19:36:32.704Z,99.90
2022-07-31T19:39:00.791Z,99.90
2022-07-31T19:41:29.067Z,99.90
2022-07-31T19:43:57.425Z,99.90
2022-07-31T19:46:25.579Z,99.90
2022-07-31T19:48:53.836Z,99.90
2022-07-31T19:51:22.745Z,99.90
2022-07-31T19:53:53.298Z,99.90
2022-07-31T19:56:21.689Z,99.90
2022-07-31T19:58:52.222Z,99.90
2022-07-31T20:01:22.266Z,99.90
2022-07-31T20:03:53.246Z,99.90
2022-07-31T20:06:23.561Z,99.90
2022-07-31T20:08:58.739Z,99.90
2022-07-31T20:11:28.703Z,99.90
2022-07-31T20:13:57.299Z,99.90
2022-07-31T20:16:27.597Z,99.90
2022-07-31T20:18:57.033Z,99.90
2022-07-31T20:21:25.234Z,99.90
2022-07-31T20:23:56.588Z,99.90
2022-07-31T20:26:26.260Z,99.90
2022-07-31T20:28:55.548Z,99.90
2022-07-31T20:31:23.798Z,99.90
2022-07-31T20:33:57.594Z,99.90
2022-07-31T20:36:27.661Z,99.90
2022-07-31T20:38:59.358Z,99.90
2022-07-31T20:41:30.089Z,99.90
2022-07-31T20:43:58.543Z,99.90
2022-07-31T20:46:27.721Z,99.90
2022-07-31T20:48:57.520Z,99.90
2022-07-31T20:51:26.533Z,99.90
2022-07-31T20:53:55.856Z,99.90
2022-07-31T20:56:24.368Z,99.90
2022-07-31T20:58:54.779Z,99.90
2022-07-31T21:01:23.271Z,99.90
2022-07-31T21:03:52.191Z,99.90
2022-07-31T21:06:21.026Z,99.90
2022-07-31T21:08:49.518Z,99.90
2022-07-31T21:11:20.406Z,99.90
2022-07-31T21:13:48.671Z,99.90
2022-07-31T21:16:20.036Z,99.90
2022-07-31T21:18:51.096Z,99.90
2022-07-31T21:21:19.977Z,99.90
2022-07-31T21:23:48.135Z,99.90
2022-07-31T21:26:16.890Z,99.90
2022-07-31T21:28:46.463Z,99.90
2022-07-31T21:31:14.787Z,99.90
2022-07-31T21:33:45.374Z,99.90
2022-07-31T21:36:15.544Z,99.90
2022-07-31T21:38:44.889Z,99.90
2022-07-31T21:41:14.000Z,99.90
2022-07-31T21:43:59.193Z,99.90
2022-07-31T21:46:30.315Z,99.90
2022-07-31T21:49:00.887Z,99.90
2022-07-31T21:51:29.803Z,99.90
2022-07-31T21:53:58.152Z,99.90
2022-07-31T21:56:26.809Z,99.90
2022-07-31T21:58:54.982Z,99.90
2022-07-31T22:01:23.435Z,99.90
2022-07-31T22:03:51.563Z,99.90
2022-07-31T22:06:38.502Z,99.90
2022-07-31T22:09:06.635Z,99.90
2022-07-31T22:11:35.792Z,99.90
2022-07-31T22:14:03.880Z,99.90
2022-07-31T22:16:32.050Z,99.90
2022-07-31T22:19:00.406Z,99.90
2022-07-31T22:21:30.203Z,99.90
2022-07-31T22:23:58.768Z,99.90
2022-07-31T22:26:27.410Z,99.90
2022-07-31T22:28:56.713Z,99.90
2022-07-31T22:31:25.406Z,99.90
2022-07-31T22:33:53.732Z,99.90
2022-07-31T22:36:22.247Z,99.90
2022-07-31T22:38:52.344Z,99.90
2022-07-31T22:41:20.654Z,99.90
2022-07-31T22:44:13.413Z,99.90
2022-07-31T22:46:38.330Z,99.90
2022-07-31T22:49:08.400Z,99.90
2022-07-31T22:51:38.558Z,99.90
2022-07-31T22:54:08.722Z,99.90
2022-07-31T22:56:36.843Z,99.90
2022-07-31T22:59:05.067Z,99.90
2022-07-31T23:01:33.581Z,99.90
2022-07-31T23:04:01.663Z,99.90
2022-07-31T23:06:32.552Z,99.90
2022-07-31T23:09:01.921Z,99.90
2022-07-31T23:11:31.511Z,99.90
2022-07-31T23:13:59.605Z,99.90
2022-07-31T23:16:28.066Z,99.90
2022-07-31T23:18:56.321Z,99.90
2022-07-31T23:21:24.766Z,99.90
2022-07-31T23:23:53.302Z,99.90
2022-07-31T23:26:23.983Z,99.90
2022-07-31T23:28:54.436Z,99.90
2022-07-31T23:31:23.680Z,99.90
2022-07-31T23:33:52.667Z,99.90
2022-07-31T23:36:20.879Z,99.90
2022-07-31T23:38:49.606Z,99.90
2022-07-31T23:41:38.898Z,99.90
2022-07-31T23:44:09.866Z,99.90
2022-07-31T23:46:38.935Z,99.90
2022-07-31T23:49:09.075Z,99.90
2022-07-31T23:51:37.334Z,99.90
2022-07-31T23:54:06.252Z,99.90
2022-07-31T23:56:34.508Z,99.90
2022-07-31T23:59:02.541Z,99.90
